Terminal Aerodrome Forecast
Issued by NWS

Home | Current Version | Previous Version | Text Only | Print | Product List | Glossary On
Versions: 1 2 3 4 5 6 7 8 9 10 11 12 13 14 15 16 17
000
FTUS45 KGJT 271739
TAFMTJ
TAF
KMTJ 271739Z 2718/2818 35004KT P6SM BKN100
     FM272100 34006KT P6SM VCTS BKN100CB
     FM280000 15007KT P6SM VCSH BKN090
     FM280400 14006KT P6SM SCT090 BKN130=

USA.gov is the U.S. government's official web portal to all federal, state and local government web resources and services.